createdAt,value
2019-06-08T00:00:15.284Z,451.27
2019-06-08T00:02:47.183Z,474.15
2019-06-08T00:05:18.962Z,453.73
2019-06-08T00:07:50.324Z,459.33
2019-06-08T00:10:25.232Z,431.50
2019-06-08T00:12:56.251Z,434.30
2019-06-08T00:15:27.489Z,425.30
2019-06-08T00:17:59.501Z,442.15
2019-06-08T00:20:31.056Z,421.12
2019-06-08T00:23:02.567Z,408.92
2019-06-08T00:25:34.252Z,404.27
2019-06-08T00:28:05.678Z,395.70
2019-06-08T00:30:37.636Z,388.60
2019-06-08T00:33:09.266Z,395.33
2019-06-08T00:35:41.047Z,394.15
2019-06-08T00:38:12.381Z,388.23
2019-06-08T00:40:44.019Z,380.83
2019-06-08T00:43:15.460Z,374.32
2019-06-08T00:45:47.067Z,382.70
2019-06-08T00:48:19.488Z,370.88
2019-06-08T00:50:51.843Z,366.23
2019-06-08T00:53:23.326Z,380.00
2019-06-08T00:55:54.810Z,394.67
2019-06-08T00:58:26.442Z,397.45
2019-06-08T01:00:58.873Z,381.63
2019-06-08T01:03:30.163Z,380.20
2019-06-08T01:06:01.688Z,437.82
2019-06-08T01:08:33.316Z,380.40
2019-06-08T01:11:05.254Z,293.63
2019-06-08T01:13:36.512Z,203.80
2019-06-08T01:16:08.385Z,147.17
2019-06-08T01:18:39.568Z,171.82
2019-06-08T01:21:10.843Z,183.90
2019-06-08T01:23:42.154Z,151.10
2019-06-08T01:26:13.619Z,156.35
2019-06-08T01:28:44.825Z,152.78
2019-06-08T01:31:16.231Z,135.93
2019-06-08T01:33:47.591Z,137.37
2019-06-08T01:36:19.006Z,130.25
2019-06-08T01:38:50.225Z,129.85
2019-06-08T01:41:21.745Z,130.37
2019-06-08T01:43:53.336Z,130.00
2019-06-08T01:46:25.891Z,130.45
2019-06-08T01:48:57.348Z,137.90
2019-06-08T01:51:28.775Z,144.40
2019-06-08T01:54:00.276Z,157.82
2019-06-08T01:56:31.840Z,176.05
2019-06-08T01:59:03.336Z,197.68
2019-06-08T02:01:34.790Z,226.42
2019-06-08T02:04:06.309Z,245.05
2019-06-08T02:06:38.832Z,270.63
2019-06-08T02:09:10.598Z,296.98
2019-06-08T02:11:42.204Z,325.60
2019-06-08T02:14:13.694Z,340.30
2019-06-08T02:16:45.416Z,343.80
2019-06-08T02:19:16.886Z,361.68
2019-06-08T02:21:48.362Z,374.23
2019-06-08T02:24:19.814Z,373.23
2019-06-08T02:26:51.363Z,386.75
2019-06-08T02:29:22.726Z,382.15
2019-06-08T02:31:54.317Z,389.20
2019-06-08T02:34:25.612Z,380.98
2019-06-08T02:36:57.173Z,384.73
2019-06-08T02:39:28.602Z,358.32
2019-06-08T02:41:59.971Z,366.35
2019-06-08T02:44:32.189Z,361.57
2019-06-08T02:47:03.690Z,358.95
2019-06-08T02:49:35.506Z,360.35
2019-06-08T02:52:07.441Z,356.32
2019-06-08T02:54:39.792Z,348.18
2019-06-08T02:57:14.021Z,344.07
2019-06-08T02:59:46.018Z,350.95
2019-06-08T03:02:20.556Z,327.45
2019-06-08T03:04:53.923Z,335.70
2019-06-08T03:07:25.547Z,341.85
2019-06-08T03:09:57.361Z,330.80
2019-06-08T03:12:30.930Z,309.83
2019-06-08T03:15:03.693Z,314.40
2019-06-08T03:17:35.650Z,311.55
2019-06-08T03:20:07.748Z,302.95
2019-06-08T03:22:41.892Z,294.77
2019-06-08T03:25:12.946Z,292.43
2019-06-08T03:27:44.219Z,290.35
2019-06-08T03:30:18.569Z,294.48
2019-06-08T03:32:55.913Z,301.15
2019-06-08T03:35:21.784Z,295.65
2019-06-08T03:37:53.358Z,288.57
2019-06-08T03:40:24.738Z,299.45
2019-06-08T03:42:58.030Z,300.52
2019-06-08T03:45:29.415Z,286.60
2019-06-08T03:48:00.941Z,296.52
2019-06-08T03:50:32.440Z,302.40
2019-06-08T03:53:03.753Z,300.77
2019-06-08T03:55:35.450Z,294.27
2019-06-08T03:58:07.068Z,301.62
2019-06-08T04:00:38.388Z,292.50
2019-06-08T04:03:09.977Z,303.23
2019-06-08T04:05:42.711Z,296.43
2019-06-08T04:08:14.467Z,308.40
2019-06-08T04:10:46.767Z,299.90
2019-06-08T04:13:18.549Z,304.55
2019-06-08T04:15:51.338Z,306.75
2019-06-08T04:18:22.701Z,316.23
2019-06-08T04:20:53.936Z,313.15
2019-06-08T04:23:25.570Z,319.98
2019-06-08T04:25:57.142Z,323.93
2019-06-08T04:28:28.441Z,329.87
2019-06-08T04:30:59.870Z,329.52
2019-06-08T04:33:31.162Z,330.23
2019-06-08T04:36:02.871Z,334.87
2019-06-08T04:38:34.106Z,340.07
2019-06-08T04:41:05.392Z,338.70
2019-06-08T04:43:38.485Z,348.30
2019-06-08T04:46:10.175Z,337.12
2019-06-08T04:48:43.143Z,344.60
2019-06-08T04:51:14.683Z,345.82
2019-06-08T04:53:47.199Z,355.32
2019-06-08T04:56:20.325Z,346.48
2019-06-08T04:58:51.770Z,350.75
2019-06-08T05:01:23.120Z,354.20
2019-06-08T05:03:54.605Z,360.20
2019-06-08T05:06:26.222Z,352.77
2019-06-08T05:08:57.643Z,358.57
2019-06-08T05:11:29.004Z,352.70
2019-06-08T05:14:00.473Z,353.77
2019-06-08T05:16:31.760Z,375.13
2019-06-08T05:19:03.129Z,382.12
2019-06-08T05:21:34.750Z,406.95
2019-06-08T05:24:06.470Z,438.10
2019-06-08T05:26:39.152Z,449.90
2019-06-08T05:29:10.929Z,476.70
2019-06-08T05:31:43.533Z,519.83
2019-06-08T05:34:14.717Z,541.27
2019-06-08T05:36:45.563Z,573.07
2019-06-08T05:39:16.499Z,585.90
2019-06-08T05:41:47.804Z,611.50
2019-06-08T05:44:18.866Z,616.90
2019-06-08T05:46:50.070Z,596.03
2019-06-08T05:49:22.202Z,616.67
2019-06-08T05:51:53.452Z,633.00
2019-06-08T05:54:24.639Z,658.47
2019-06-08T05:56:55.569Z,680.67
2019-06-08T05:59:26.612Z,710.17
2019-06-08T06:01:58.917Z,702.60
2019-06-08T06:04:30.314Z,685.53
2019-06-08T06:07:01.365Z,680.00
2019-06-08T06:09:32.659Z,687.37
2019-06-08T06:12:03.995Z,706.90
2019-06-08T06:14:36.977Z,704.97
2019-06-08T06:17:08.032Z,723.73
2019-06-08T06:19:39.175Z,746.23
2019-06-08T06:22:11.434Z,782.60
2019-06-08T06:24:43.766Z,788.43
2019-06-08T06:27:15.067Z,800.07
2019-06-08T06:29:47.866Z,807.40
2019-06-08T06:32:19.409Z,796.93
2019-06-08T06:34:52.024Z,798.07
2019-06-08T06:37:23.547Z,798.60
2019-06-08T06:39:54.785Z,800.87
2019-06-08T06:42:26.051Z,782.40
2019-06-08T06:44:57.374Z,784.87
2019-06-08T06:47:28.299Z,791.17
2019-06-08T06:49:59.452Z,779.70
2019-06-08T06:52:30.719Z,763.83
2019-06-08T06:55:02.009Z,777.70
2019-06-08T06:57:36.221Z,776.87
2019-06-08T07:00:07.270Z,778.90
2019-06-08T07:02:38.623Z,772.80
2019-06-08T07:05:09.925Z,780.97
2019-06-08T07:07:41.112Z,769.90
2019-06-08T07:10:12.512Z,781.90
2019-06-08T07:12:44.469Z,787.67
2019-06-08T07:15:18.792Z,784.60
2019-06-08T07:17:50.140Z,801.50
2019-06-08T07:20:21.279Z,823.70
2019-06-08T07:22:52.461Z,839.30
2019-06-08T07:25:23.487Z,843.07
2019-06-08T07:27:55.883Z,837.03
2019-06-08T07:30:27.349Z,832.77
2019-06-08T07:32:59.385Z,852.27
2019-06-08T07:35:31.222Z,864.83
2019-06-08T07:38:02.466Z,869.00
2019-06-08T07:40:33.492Z,872.70
2019-06-08T07:43:05.113Z,876.77
2019-06-08T07:45:36.354Z,856.23
2019-06-08T07:48:07.529Z,866.73
2019-06-08T07:50:38.595Z,881.17
2019-06-08T07:53:09.850Z,890.43
2019-06-08T07:55:41.064Z,899.00
2019-06-08T07:58:11.968Z,915.03
2019-06-08T08:00:43.097Z,910.00
2019-06-08T08:03:14.551Z,906.43
2019-06-08T08:05:48.167Z,916.10
2019-06-08T08:08:20.436Z,932.87
2019-06-08T08:10:52.376Z,927.93
2019-06-08T08:13:24.844Z,930.87
2019-06-08T08:15:58.542Z,942.37
2019-06-08T08:18:29.694Z,931.73
2019-06-08T08:21:09.312Z,929.33
2019-06-08T08:23:33.854Z,925.50
2019-06-08T08:26:05.122Z,926.37
2019-06-08T08:28:37.521Z,940.00
2019-06-08T08:31:11.414Z,947.67
2019-06-08T08:33:42.322Z,948.23
2019-06-08T08:36:13.384Z,956.53
2019-06-08T08:38:44.370Z,962.57
2019-06-08T08:41:17.953Z,951.03
2019-06-08T08:43:50.352Z,945.27
2019-06-08T08:46:21.357Z,944.73
2019-06-08T08:48:52.465Z,943.13
2019-06-08T08:51:23.352Z,951.17
2019-06-08T08:53:59.940Z,960.03
2019-06-08T08:56:27.962Z,954.60
2019-06-08T08:59:01.499Z,961.27
2019-06-08T09:01:32.126Z,970.40
2019-06-08T09:04:05.145Z,972.73
2019-06-08T09:06:38.109Z,973.30
2019-06-08T09:09:09.355Z,971.73
2019-06-08T09:11:41.296Z,983.60
2019-06-08T09:14:14.286Z,985.47
2019-06-08T09:16:47.992Z,984.23
2019-06-08T09:19:20.872Z,988.20
2019-06-08T09:21:52.519Z,988.83
2019-06-08T09:24:23.950Z,986.93
2019-06-08T09:26:56.755Z,985.80
2019-06-08T09:29:28.885Z,988.37
2019-06-08T09:32:01.875Z,984.43
2019-06-08T09:34:32.780Z,989.77
2019-06-08T09:37:05.111Z,993.40
2019-06-08T09:39:38.513Z,983.90
2019-06-08T09:42:09.655Z,986.60
2019-06-08T09:44:40.854Z,974.90
2019-06-08T09:47:12.832Z,971.33
2019-06-08T09:49:43.940Z,975.43
2019-06-08T09:52:18.194Z,974.70
2019-06-08T09:54:48.211Z,975.30
2019-06-08T09:57:19.782Z,988.93
2019-06-08T09:59:51.217Z,991.30
2019-06-08T10:02:22.296Z,990.00
2019-06-08T10:04:54.194Z,999.00
2019-06-08T10:07:28.615Z,991.37
2019-06-08T10:10:02.561Z,998.07
2019-06-08T10:12:32.630Z,998.10
2019-06-08T10:15:04.950Z,997.57
2019-06-08T10:17:37.723Z,996.47
2019-06-08T10:20:10.153Z,995.10
2019-06-08T10:22:41.518Z,995.67
2019-06-08T10:25:13.826Z,995.37
2019-06-08T10:27:45.028Z,997.93
2019-06-08T10:30:16.630Z,998.40
2019-06-08T10:32:50.633Z,999.33
2019-06-08T10:35:21.053Z,998.33
2019-06-08T10:37:55.138Z,992.97
2019-06-08T10:40:25.425Z,998.73
2019-06-08T10:42:59.844Z,999.17
2019-06-08T10:45:29.610Z,999.73
2019-06-08T10:48:02.839Z,999.90
2019-06-08T10:50:33.975Z,999.90
2019-06-08T10:53:08.238Z,999.90
2019-06-08T10:55:40.899Z,999.90
2019-06-08T10:58:11.407Z,999.90
2019-06-08T11:00:42.503Z,999.90
2019-06-08T11:03:13.787Z,999.90
2019-06-08T11:05:44.973Z,999.90
2019-06-08T11:08:18.678Z,999.90
2019-06-08T11:10:48.764Z,999.90
2019-06-08T11:13:19.755Z,999.90
2019-06-08T11:15:50.565Z,999.90
2019-06-08T11:18:21.450Z,998.80
2019-06-08T11:20:52.541Z,998.17
2019-06-08T11:23:23.446Z,999.90
2019-06-08T11:25:54.603Z,999.90
2019-06-08T11:28:28.105Z,999.90
2019-06-08T11:30:59.587Z,997.97
2019-06-08T11:33:30.683Z,994.77
2019-06-08T11:36:05.797Z,992.40
2019-06-08T11:38:34.601Z,990.07
2019-06-08T11:41:09.581Z,982.97
2019-06-08T11:43:38.579Z,971.70
2019-06-08T11:46:10.676Z,977.17
2019-06-08T11:48:41.905Z,971.80
2019-06-08T11:51:13.256Z,965.23
2019-06-08T11:53:44.219Z,954.10
2019-06-08T11:56:18.122Z,947.47
2019-06-08T11:58:49.925Z,959.10
2019-06-08T12:01:20.987Z,948.37
2019-06-08T12:03:52.208Z,948.77
2019-06-08T12:06:23.675Z,948.37
2019-06-08T12:08:57.393Z,946.23
2019-06-08T12:11:28.479Z,952.97
2019-06-08T12:13:59.833Z,951.60
2019-06-08T12:16:31.201Z,953.53
2019-06-08T12:19:04.373Z,954.87
2019-06-08T12:21:35.623Z,950.70
2019-06-08T12:24:08.183Z,945.53
2019-06-08T12:26:39.254Z,941.57
2019-06-08T12:29:12.750Z,940.53
2019-06-08T12:31:43.467Z,944.00
2019-06-08T12:34:16.234Z,946.07
2019-06-08T12:36:48.139Z,953.87
2019-06-08T12:39:21.419Z,943.87
2019-06-08T12:41:52.448Z,947.47
2019-06-08T12:44:26.183Z,939.43
2019-06-08T12:46:58.581Z,943.00
2019-06-08T12:49:29.433Z,961.43
2019-06-08T12:52:00.227Z,946.47
2019-06-08T12:54:32.400Z,936.53
2019-06-08T12:57:03.547Z,940.00
2019-06-08T12:59:34.728Z,932.07
2019-06-08T13:02:08.929Z,932.43
2019-06-08T13:04:38.760Z,934.10
2019-06-08T13:07:10.499Z,929.77
2019-06-08T13:09:42.810Z,933.27
2019-06-08T13:12:15.053Z,922.93
2019-06-08T13:14:47.739Z,925.73
2019-06-08T13:17:21.153Z,927.87
2019-06-08T13:19:52.392Z,927.47
2019-06-08T13:22:28.149Z,928.97
2019-06-08T13:25:12.748Z,919.97
2019-06-08T13:27:29.408Z,908.00
2019-06-08T13:30:00.815Z,914.43
2019-06-08T13:32:32.168Z,919.70
2019-06-08T13:35:03.469Z,909.70
2019-06-08T13:37:34.671Z,912.97
2019-06-08T13:40:08.143Z,916.00
2019-06-08T13:42:39.437Z,910.83
2019-06-08T13:45:11.466Z,906.87
2019-06-08T13:47:42.548Z,906.33
2019-06-08T13:50:14.727Z,907.83
2019-06-08T13:52:45.723Z,902.17
2019-06-08T13:55:36.525Z,901.60
2019-06-08T13:57:49.885Z,901.73
2019-06-08T14:00:24.897Z,905.33
2019-06-08T14:02:57.876Z,899.73
2019-06-08T14:05:31.902Z,898.83
2019-06-08T14:08:03.044Z,897.07
2019-06-08T14:10:38.525Z,900.67
2019-06-08T14:13:09.360Z,894.63
2019-06-08T14:15:40.365Z,902.73
2019-06-08T14:18:11.484Z,903.13
2019-06-08T14:20:42.704Z,904.73
2019-06-08T14:23:13.768Z,902.37
2019-06-08T14:25:53.184Z,901.60
2019-06-08T14:28:19.848Z,903.30
2019-06-08T14:30:51.366Z,900.93
2019-06-08T14:33:25.889Z,902.87
2019-06-08T14:35:58.548Z,898.27
2019-06-08T14:38:35.449Z,895.47
2019-06-08T14:41:00.023Z,896.50
2019-06-08T14:43:31.422Z,893.63
2019-06-08T14:46:02.403Z,889.33
2019-06-08T14:48:34.041Z,893.37
2019-06-08T14:51:05.503Z,889.60
2019-06-08T14:53:38.559Z,893.23
2019-06-08T14:56:09.248Z,892.07
2019-06-08T14:58:40.376Z,893.60
2019-06-08T15:01:11.354Z,898.67
2019-06-08T15:03:42.179Z,893.50
2019-06-08T15:06:13.037Z,889.87
2019-06-08T15:08:43.955Z,892.97
2019-06-08T15:11:15.064Z,895.63
2019-06-08T15:13:48.555Z,884.17
2019-06-08T15:16:19.787Z,888.63
2019-06-08T15:18:50.664Z,894.17
2019-06-08T15:21:24.141Z,895.97
2019-06-08T15:23:54.511Z,885.40
2019-06-08T15:26:35.813Z,890.07
2019-06-08T15:28:58.793Z,893.67
2019-06-08T15:31:31.154Z,894.80
2019-06-08T15:34:02.774Z,895.83
2019-06-08T15:36:34.163Z,893.73
2019-06-08T15:39:07.920Z,894.40
2019-06-08T15:41:39.277Z,890.00
2019-06-08T15:44:10.395Z,890.37
2019-06-08T15:46:43.293Z,887.70
2019-06-08T15:49:14.242Z,885.27
2019-06-08T15:51:46.069Z,879.83
2019-06-08T15:54:17.956Z,871.80
2019-06-08T15:56:52.075Z,877.80
2019-06-08T15:59:23.129Z,871.03
2019-06-08T16:01:54.518Z,875.13
2019-06-08T16:04:25.788Z,881.13
2019-06-08T16:06:57.106Z,878.00
2019-06-08T16:09:28.129Z,881.03
2019-06-08T16:11:59.743Z,870.50
2019-06-08T16:14:30.992Z,869.60
2019-06-08T16:17:02.272Z,870.40
2019-06-08T16:19:33.733Z,870.43
2019-06-08T16:22:06.046Z,873.43
2019-06-08T16:24:38.164Z,867.87
2019-06-08T16:27:09.519Z,865.57
2019-06-08T16:29:40.767Z,863.00
2019-06-08T16:32:12.067Z,854.13
2019-06-08T16:34:43.277Z,857.43
2019-06-08T16:37:15.047Z,855.60
2019-06-08T16:39:46.207Z,858.93
2019-06-08T16:42:17.357Z,852.53
2019-06-08T16:44:48.185Z,854.03
2019-06-08T16:47:19.692Z,841.63
2019-06-08T16:49:51.101Z,843.73
2019-06-08T16:52:22.592Z,845.87
2019-06-08T16:54:54.884Z,846.20
2019-06-08T16:57:25.812Z,833.53
2019-06-08T16:59:56.713Z,831.93
2019-06-08T17:02:28.541Z,836.60
2019-06-08T17:04:59.461Z,833.37
2019-06-08T17:07:32.169Z,830.27
2019-06-08T17:10:03.164Z,816.70
2019-06-08T17:12:34.723Z,817.70
2019-06-08T17:15:06.277Z,808.60
2019-06-08T17:17:38.463Z,797.27
2019-06-08T17:20:09.800Z,798.97
2019-06-08T17:22:40.971Z,795.47
2019-06-08T17:25:12.317Z,799.70
2019-06-08T17:27:43.792Z,788.73
2019-06-08T17:30:15.518Z,781.03
2019-06-08T17:32:47.003Z,781.67
2019-06-08T17:35:18.204Z,781.77
2019-06-08T17:37:49.506Z,783.30
2019-06-08T17:40:20.693Z,771.07
2019-06-08T17:42:52.104Z,773.77
2019-06-08T17:45:23.328Z,771.23
2019-06-08T17:47:54.823Z,770.00
2019-06-08T17:50:26.469Z,764.83
2019-06-08T17:52:57.824Z,753.90
2019-06-08T17:55:28.837Z,753.13
2019-06-08T17:58:00.160Z,747.50
2019-06-08T18:00:31.291Z,749.37
2019-06-08T18:03:02.389Z,744.63
2019-06-08T18:05:33.839Z,745.27
2019-06-08T18:08:07.714Z,737.33
2019-06-08T18:10:40.354Z,736.80
2019-06-08T18:13:11.429Z,730.00
2019-06-08T18:15:43.719Z,736.40
2019-06-08T18:18:17.620Z,722.13
2019-06-08T18:20:52.156Z,723.70
2019-06-08T18:23:23.432Z,721.67
2019-06-08T18:25:54.937Z,712.23
2019-06-08T18:28:28.118Z,703.33
2019-06-08T18:30:59.216Z,698.13
2019-06-08T18:33:30.225Z,691.73
2019-06-08T18:36:01.241Z,684.63
2019-06-08T18:38:32.241Z,681.23
2019-06-08T18:41:03.645Z,671.57
2019-06-08T18:43:34.968Z,673.70
2019-06-08T18:46:07.091Z,667.00
2019-06-08T18:48:41.666Z,663.97
2019-06-08T18:51:12.565Z,666.23
2019-06-08T18:54:05.408Z,666.27
2019-06-08T18:56:18.264Z,651.20
2019-06-08T18:58:53.615Z,659.90
2019-06-08T19:01:23.756Z,658.03
2019-06-08T19:03:55.159Z,654.47
2019-06-08T19:06:27.838Z,663.23
2019-06-08T19:08:59.308Z,671.27
2019-06-08T19:11:30.646Z,662.10
2019-06-08T19:14:03.080Z,657.20
2019-06-08T19:16:34.137Z,649.47
2019-06-08T19:19:07.400Z,649.77
2019-06-08T19:21:39.224Z,642.63
2019-06-08T19:24:10.492Z,640.87
2019-06-08T19:26:43.173Z,636.50
2019-06-08T19:29:14.411Z,637.03
2019-06-08T19:31:47.001Z,629.97
2019-06-08T19:34:18.295Z,628.87
2019-06-08T19:36:54.032Z,620.93
2019-06-08T19:39:22.295Z,626.57
2019-06-08T19:41:53.437Z,608.57
2019-06-08T19:44:24.677Z,601.17
2019-06-08T19:46:57.498Z,597.20
2019-06-08T19:49:28.825Z,591.13
2019-06-08T19:52:01.087Z,594.40
2019-06-08T19:54:32.166Z,588.33
2019-06-08T19:57:03.129Z,588.70
2019-06-08T19:59:34.060Z,594.87
2019-06-08T20:02:05.059Z,597.83
2019-06-08T20:04:38.457Z,599.80
2019-06-08T20:07:09.102Z,602.57
2019-06-08T20:09:41.070Z,601.33
2019-06-08T20:12:12.126Z,602.17
2019-06-08T20:14:45.390Z,605.70
2019-06-08T20:17:17.180Z,597.30
2019-06-08T20:19:50.481Z,602.27
2019-06-08T20:22:21.778Z,604.07
2019-06-08T20:24:55.915Z,604.33
2019-06-08T20:27:27.559Z,598.87
2019-06-08T20:29:58.674Z,596.87
2019-06-08T20:32:29.778Z,594.37
2019-06-08T20:35:00.968Z,598.57
2019-06-08T20:37:32.418Z,600.30
2019-06-08T20:40:11.140Z,594.67
2019-06-08T20:42:37.815Z,595.00
2019-06-08T20:45:09.142Z,597.00
2019-06-08T20:47:40.675Z,601.40
2019-06-08T20:50:12.237Z,597.33
2019-06-08T20:52:44.392Z,594.03
2019-06-08T20:55:17.562Z,592.83
2019-06-08T20:57:49.772Z,590.87
2019-06-08T21:00:21.883Z,591.10
2019-06-08T21:02:54.868Z,582.00
2019-06-08T21:05:27.794Z,580.97
2019-06-08T21:07:59.264Z,588.60
2019-06-08T21:10:30.533Z,582.87
2019-06-08T21:13:01.816Z,570.37
2019-06-08T21:15:33.965Z,587.73
2019-06-08T21:18:07.695Z,585.63
2019-06-08T21:20:38.041Z,588.03
2019-06-08T21:23:09.382Z,584.80
2019-06-08T21:25:40.766Z,585.80
2019-06-08T21:28:11.793Z,583.83
2019-06-08T21:30:43.231Z,580.10
2019-06-08T21:33:14.161Z,575.43
2019-06-08T21:35:47.847Z,570.43
2019-06-08T21:38:23.773Z,566.97
2019-06-08T21:40:53.777Z,563.60
2019-06-08T21:43:23.966Z,570.43
2019-06-08T21:45:56.325Z,555.57
2019-06-08T21:48:27.858Z,551.07
2019-06-08T21:51:01.431Z,554.73
2019-06-08T21:53:32.650Z,552.50
2019-06-08T21:56:03.662Z,551.37
2019-06-08T21:58:34.902Z,546.37
2019-06-08T22:01:07.332Z,535.07
2019-06-08T22:03:38.747Z,536.53
2019-06-08T22:06:10.262Z,538.87
2019-06-08T22:08:41.602Z,532.63
2019-06-08T22:11:13.025Z,531.10
2019-06-08T22:13:44.095Z,524.73
2019-06-08T22:16:15.141Z,525.37
2019-06-08T22:18:47.511Z,540.83
2019-06-08T22:21:18.849Z,527.33
2019-06-08T22:23:51.005Z,537.37
2019-06-08T22:26:23.236Z,521.83
2019-06-08T22:28:55.416Z,530.70
2019-06-08T22:31:27.695Z,528.17
2019-06-08T22:34:01.617Z,525.90
2019-06-08T22:36:31.365Z,518.50
2019-06-08T22:39:03.828Z,519.73
2019-06-08T22:41:37.346Z,505.93
2019-06-08T22:44:08.502Z,499.47
2019-06-08T22:46:39.880Z,509.33
2019-06-08T22:49:10.895Z,506.23
2019-06-08T22:51:41.858Z,509.93
2019-06-08T22:54:12.735Z,504.67
2019-06-08T22:56:43.676Z,504.37
2019-06-08T22:59:17.358Z,498.30
2019-06-08T23:01:47.665Z,493.87
2019-06-08T23:04:18.732Z,500.23
2019-06-08T23:06:49.869Z,492.50
2019-06-08T23:09:21.066Z,494.97
2019-06-08T23:11:52.335Z,488.83
2019-06-08T23:14:24.542Z,488.07
2019-06-08T23:16:59.570Z,498.80
2019-06-08T23:19:28.875Z,490.70
2019-06-08T23:22:01.316Z,483.53
2019-06-08T23:24:33.028Z,488.60
2019-06-08T23:27:04.318Z,483.83
2019-06-08T23:29:37.685Z,482.40
2019-06-08T23:32:11.373Z,481.67
2019-06-08T23:34:41.066Z,483.27
2019-06-08T23:37:12.983Z,478.93
2019-06-08T23:39:44.258Z,484.80
2019-06-08T23:42:17.734Z,481.73
2019-06-08T23:44:48.442Z,478.27
2019-06-08T23:47:19.513Z,485.00
2019-06-08T23:49:50.902Z,481.30
2019-06-08T23:52:22.204Z,479.27
2019-06-08T23:54:53.172Z,477.13
2019-06-08T23:57:24.409Z,480.30
2019-06-08T23:59:55.598Z,480.63
